createdAt,value
2018-09-09T00:02:47.896Z,99.90
2018-09-09T00:07:51.435Z,99.90
2018-09-09T00:12:54.891Z,99.90
2018-09-09T00:23:01.564Z,99.30
2018-09-09T00:28:05.285Z,99.30
2018-09-09T00:33:08.908Z,99.80
2018-09-09T00:38:12.220Z,99.90
2018-09-09T00:43:15.612Z,99.90
2018-09-09T00:48:18.960Z,99.90
2018-09-09T00:53:27.872Z,99.90
2018-09-09T00:58:31.243Z,99.90
2018-09-09T01:03:34.823Z,99.60
2018-09-09T01:08:38.240Z,99.90
2018-09-09T01:13:41.601Z,99.90
2018-09-09T01:18:45.188Z,99.90
2018-09-09T01:23:48.537Z,99.90
2018-09-09T01:28:51.877Z,99.90
2018-09-09T01:33:55.330Z,99.90
2018-09-09T01:38:58.715Z,99.90
2018-09-09T01:44:02.188Z,99.90
2018-09-09T01:49:05.761Z,99.90
2018-09-09T01:54:09.286Z,99.90
2018-09-09T01:59:12.754Z,99.90
2018-09-09T02:04:16.068Z,99.90
2018-09-09T02:09:19.431Z,99.90
2018-09-09T02:14:22.766Z,99.90
2018-09-09T02:19:26.205Z,99.90
2018-09-09T02:24:29.760Z,99.90
2018-09-09T02:29:33.287Z,99.90
2018-09-09T02:34:36.596Z,99.90
2018-09-09T02:39:40.033Z,99.90
2018-09-09T02:44:43.308Z,99.90
2018-09-09T02:49:46.608Z,99.90
2018-09-09T02:54:50.000Z,99.90
2018-09-09T02:59:53.545Z,99.90
2018-09-09T03:04:56.848Z,99.90
2018-09-09T03:10:00.327Z,99.90
2018-09-09T03:15:03.740Z,99.90
2018-09-09T03:20:07.101Z,99.90
2018-09-09T03:30:14.041Z,99.90
2018-09-09T03:35:17.453Z,99.90
2018-09-09T03:40:20.748Z,99.90
2018-09-09T03:45:24.353Z,99.90
2018-09-09T03:50:27.765Z,99.90
2018-09-09T03:55:31.305Z,99.90
2018-09-09T04:00:35.677Z,99.90
2018-09-09T04:05:39.061Z,99.90
2018-09-09T04:10:42.538Z,99.90
2018-09-09T04:15:45.973Z,99.90
2018-09-09T04:20:49.271Z,99.90
2018-09-09T04:25:52.674Z,99.90
2018-09-09T04:30:56.158Z,99.90
2018-09-09T04:35:59.424Z,99.90
2018-09-09T04:41:02.732Z,99.90
2018-09-09T04:46:06.384Z,99.90
2018-09-09T04:51:09.833Z,99.90
2018-09-09T04:56:13.259Z,99.90
2018-09-09T05:01:16.837Z,99.90
2018-09-09T05:06:20.453Z,99.90
2018-09-09T05:11:23.843Z,99.90
2018-09-09T05:16:27.455Z,99.90
2018-09-09T05:21:30.864Z,99.90
2018-09-09T05:26:34.174Z,99.90
2018-09-09T05:31:37.576Z,99.90
2018-09-09T05:36:41.004Z,99.90
2018-09-09T05:41:44.452Z,99.90
2018-09-09T05:46:47.839Z,99.90
2018-09-09T05:51:51.189Z,99.90
2018-09-09T05:56:54.584Z,99.90
2018-09-09T06:01:58.008Z,99.90
2018-09-09T06:07:01.407Z,99.90
2018-09-09T06:12:04.747Z,99.90
2018-09-09T06:17:08.263Z,99.90
2018-09-09T06:22:11.760Z,99.90
2018-09-09T06:27:15.301Z,99.90
2018-09-09T06:32:18.660Z,99.90
2018-09-09T06:37:22.132Z,99.90
2018-09-09T06:42:25.461Z,99.90
2018-09-09T06:47:29.241Z,99.90
2018-09-09T06:52:32.548Z,99.90
2018-09-09T06:57:36.060Z,99.90
2018-09-09T07:02:39.564Z,99.90
2018-09-09T07:07:43.065Z,99.90
2018-09-09T07:12:46.593Z,99.90
2018-09-09T07:17:50.021Z,99.90
2018-09-09T07:22:53.350Z,99.90
2018-09-09T07:27:56.860Z,99.90
2018-09-09T07:33:00.300Z,99.90
2018-09-09T07:38:03.664Z,99.90
2018-09-09T07:43:07.333Z,99.90
2018-09-09T07:48:10.848Z,99.90
2018-09-09T07:53:15.273Z,99.90
2018-09-09T07:58:18.704Z,99.90
2018-09-09T08:03:22.134Z,98.90
2018-09-09T08:08:25.626Z,99.00
2018-09-09T08:13:29.050Z,99.40
2018-09-09T08:18:32.679Z,98.50
2018-09-09T08:23:36.086Z,98.10
2018-09-09T08:28:39.557Z,98.10
2018-09-09T08:33:42.959Z,97.80
2018-09-09T08:38:46.454Z,97.50
2018-09-09T08:43:50.044Z,97.90
2018-09-09T08:48:53.749Z,97.60
2018-09-09T08:53:57.212Z,96.70
2018-09-09T08:59:00.575Z,96.70
2018-09-09T09:04:04.033Z,96.80
2018-09-09T09:09:09.487Z,96.70
2018-09-09T09:14:13.997Z,96.80
2018-09-09T09:19:17.594Z,96.00
2018-09-09T09:24:21.136Z,96.20
2018-09-09T09:29:24.613Z,95.20
2018-09-09T09:34:28.093Z,95.10
2018-09-09T09:39:31.481Z,95.50
2018-09-09T09:44:34.841Z,95.80
2018-09-09T09:49:38.150Z,95.90
2018-09-09T09:54:41.642Z,93.80
2018-09-09T09:59:44.934Z,95.00
2018-09-09T10:04:48.446Z,93.10
2018-09-09T10:09:51.740Z,93.80
2018-09-09T10:14:55.213Z,92.70
2018-09-09T10:19:58.612Z,92.20
2018-09-09T10:25:02.183Z,91.80
2018-09-09T10:30:05.799Z,90.70
2018-09-09T10:35:09.276Z,91.40
2018-09-09T10:40:12.709Z,91.20
2018-09-09T10:45:16.177Z,88.10
2018-09-09T10:50:19.530Z,87.80
2018-09-09T10:55:23.045Z,85.10
2018-09-09T11:00:26.388Z,85.60
2018-09-09T11:05:29.753Z,87.60
2018-09-09T11:10:33.373Z,82.90
2018-09-09T11:15:36.777Z,84.50
2018-09-09T11:25:44.241Z,81.90
2018-09-09T11:30:47.573Z,83.20
2018-09-09T11:35:50.916Z,81.00
2018-09-09T11:40:54.276Z,84.10
2018-09-09T11:45:57.798Z,82.10
2018-09-09T11:51:01.105Z,81.60
2018-09-09T11:56:04.561Z,80.90
2018-09-09T12:01:07.890Z,83.60
2018-09-09T12:06:11.225Z,80.50
2018-09-09T12:11:14.708Z,80.10
2018-09-09T12:16:18.144Z,81.20
2018-09-09T12:21:21.512Z,80.80
2018-09-09T12:26:24.839Z,79.40
2018-09-09T12:31:28.300Z,80.70
2018-09-09T12:36:31.731Z,80.40
2018-09-09T12:41:35.033Z,79.90
2018-09-09T12:46:43.690Z,81.50
2018-09-09T12:51:47.197Z,80.80
2018-09-09T12:56:50.498Z,81.20
2018-09-09T13:01:53.952Z,79.40
2018-09-09T13:06:57.479Z,78.70
2018-09-09T13:12:00.816Z,80.50
2018-09-09T13:17:04.316Z,80.50
2018-09-09T13:22:07.781Z,79.20
2018-09-09T13:27:11.095Z,79.90
2018-09-09T13:32:14.543Z,77.70
2018-09-09T13:37:18.106Z,77.70
2018-09-09T13:42:21.741Z,78.70
2018-09-09T13:47:25.176Z,79.60
2018-09-09T13:52:31.432Z,79.00
2018-09-09T13:57:35.084Z,79.40
2018-09-09T14:02:38.595Z,81.10
2018-09-09T14:07:42.198Z,78.10
2018-09-09T14:12:45.626Z,78.50
2018-09-09T14:17:48.954Z,77.60
2018-09-09T14:22:52.588Z,77.70
2018-09-09T14:27:56.056Z,76.90
2018-09-09T14:32:59.343Z,78.30
2018-09-09T14:38:02.780Z,77.00
2018-09-09T14:43:06.240Z,79.20
2018-09-09T14:48:09.725Z,75.80
2018-09-09T14:53:13.292Z,77.60
2018-09-09T14:58:17.155Z,77.80
2018-09-09T15:03:20.621Z,78.00
2018-09-09T15:08:24.045Z,76.90
2018-09-09T15:13:27.414Z,78.40
2018-09-09T15:18:30.831Z,79.00
2018-09-09T15:23:34.158Z,78.40
2018-09-09T15:28:37.632Z,73.60
2018-09-09T15:33:40.976Z,77.20
2018-09-09T15:38:44.333Z,70.50
2018-09-09T15:43:47.857Z,73.80
2018-09-09T15:48:51.237Z,75.70
2018-09-09T15:53:54.785Z,75.50
2018-09-09T15:58:58.380Z,72.30
2018-09-09T16:04:01.673Z,75.20
2018-09-09T16:09:07.472Z,74.40
2018-09-09T16:14:10.925Z,74.20
2018-09-09T16:19:14.378Z,69.30
2018-09-09T16:24:17.821Z,69.40
2018-09-09T16:29:21.233Z,74.80
2018-09-09T16:34:24.601Z,75.00
2018-09-09T16:39:27.949Z,74.50
2018-09-09T16:44:31.345Z,74.10
2018-09-09T16:49:34.757Z,76.60
2018-09-09T16:54:38.345Z,77.70
2018-09-09T16:59:42.059Z,76.50
2018-09-09T17:04:45.633Z,77.90
2018-09-09T17:09:49.014Z,78.80
2018-09-09T17:14:52.640Z,78.90
2018-09-09T17:19:56.058Z,79.90
2018-09-09T17:24:59.693Z,79.90
2018-09-09T17:30:03.164Z,80.40
2018-09-09T17:35:06.565Z,81.60
2018-09-09T17:40:10.120Z,82.40
2018-09-09T17:45:13.761Z,81.80
2018-09-09T17:50:17.443Z,82.50
2018-09-09T17:55:20.952Z,83.10
2018-09-09T18:00:24.346Z,84.60
2018-09-09T18:05:27.796Z,85.90
2018-09-09T18:10:31.378Z,86.00
2018-09-09T18:15:34.856Z,88.10
2018-09-09T18:20:38.221Z,88.40
2018-09-09T18:25:41.765Z,88.40
2018-09-09T18:30:45.197Z,89.30
2018-09-09T18:35:48.554Z,89.90
2018-09-09T18:40:52.258Z,90.20
2018-09-09T18:45:55.736Z,91.00
2018-09-09T18:51:00.075Z,91.30
2018-09-09T18:56:03.957Z,90.80
2018-09-09T19:01:09.082Z,91.30
2018-09-09T19:06:13.116Z,91.40
2018-09-09T19:11:16.777Z,91.80
2018-09-09T19:16:20.904Z,92.20
2018-09-09T19:21:24.611Z,92.10
2018-09-09T19:26:28.449Z,92.40
2018-09-09T19:31:32.560Z,92.20
2018-09-09T19:36:36.509Z,92.30
2018-09-09T19:41:40.793Z,92.40
2018-09-09T19:46:44.220Z,92.80
2018-09-09T19:51:48.032Z,93.00
2018-09-09T19:56:51.551Z,93.60
2018-09-09T20:01:55.309Z,94.50
2018-09-09T20:06:59.590Z,94.10
2018-09-09T20:12:03.082Z,94.80
2018-09-09T20:17:07.061Z,94.90
2018-09-09T20:22:12.478Z,94.90
2018-09-09T20:27:17.628Z,95.10
2018-09-09T20:32:22.318Z,96.10
2018-09-09T20:37:27.358Z,96.20
2018-09-09T20:42:33.280Z,96.40
2018-09-09T20:47:36.895Z,96.90
2018-09-09T20:52:40.443Z,95.60
2018-09-09T20:57:43.807Z,95.60
2018-09-09T21:02:47.169Z,96.00
2018-09-09T21:07:50.754Z,97.00
2018-09-09T21:12:54.314Z,97.40
2018-09-09T21:17:57.724Z,97.50
2018-09-09T21:23:01.236Z,96.40
2018-09-09T21:28:04.697Z,95.70
2018-09-09T21:33:08.008Z,96.30
2018-09-09T21:38:11.341Z,96.10
2018-09-09T21:43:14.908Z,96.20
2018-09-09T21:48:18.384Z,96.80
2018-09-09T21:53:21.812Z,96.30
2018-09-09T21:58:25.165Z,96.60
2018-09-09T22:03:28.632Z,96.50
2018-09-09T22:08:32.009Z,96.50
2018-09-09T22:13:35.653Z,96.60
2018-09-09T22:18:39.033Z,96.80
2018-09-09T22:23:42.498Z,97.70
2018-09-09T22:28:46.058Z,97.10
2018-09-09T22:33:49.388Z,97.50
2018-09-09T22:38:52.732Z,97.60
2018-09-09T22:43:56.271Z,97.30
2018-09-09T22:48:59.625Z,98.80
2018-09-09T22:54:03.531Z,97.80
2018-09-09T22:59:06.903Z,98.30
2018-09-09T23:04:10.302Z,99.90
2018-09-09T23:09:13.681Z,99.90
2018-09-09T23:14:17.065Z,99.50
2018-09-09T23:19:20.494Z,99.30
2018-09-09T23:24:23.851Z,98.60
2018-09-09T23:29:27.194Z,99.20
2018-09-09T23:34:30.597Z,99.90
2018-09-09T23:39:33.983Z,99.90
2018-09-09T23:44:37.453Z,99.90
2018-09-09T23:49:40.813Z,99.90
2018-09-09T23:54:44.437Z,99.90
2018-09-09T23:59:47.755Z,99.90
